createdAt,value
2023-03-29T00:01:34.874Z,9.54
2023-03-29T00:04:04.311Z,9.62
2023-03-29T00:06:33.063Z,9.61
2023-03-29T00:08:59.997Z,9.60
2023-03-29T00:11:27.220Z,9.54
2023-03-29T00:13:53.679Z,9.57
2023-03-29T00:16:20.231Z,9.53
2023-03-29T00:18:46.767Z,9.56
2023-03-29T00:21:13.164Z,9.60
2023-03-29T00:23:39.560Z,9.68
2023-03-29T00:26:08.083Z,9.59
2023-03-29T00:28:35.027Z,9.53
2023-03-29T00:31:09.258Z,9.46
2023-03-29T00:33:35.760Z,9.23
2023-03-29T00:36:04.361Z,9.43
2023-03-29T00:38:31.569Z,9.39
2023-03-29T00:40:58.192Z,9.44
2023-03-29T00:43:24.895Z,9.54
2023-03-29T00:45:51.408Z,9.38
2023-03-29T00:48:27.856Z,9.03
2023-03-29T00:50:59.765Z,8.86
2023-03-29T00:53:36.418Z,9.16
2023-03-29T00:56:11.736Z,9.32
2023-03-29T00:58:40.408Z,9.39
2023-03-29T01:01:08.810Z,9.34
2023-03-29T01:03:46.937Z,9.22
2023-03-29T01:06:17.794Z,8.77
2023-03-29T01:08:50.857Z,8.53
2023-03-29T01:11:22.422Z,8.79
2023-03-29T01:13:57.052Z,9.08
2023-03-29T01:16:26.108Z,9.26
2023-03-29T01:18:52.771Z,9.35
2023-03-29T01:21:32.325Z,9.44
2023-03-29T01:24:20.457Z,9.35
2023-03-29T01:27:22.906Z,9.24
2023-03-29T01:29:55.223Z,8.88
2023-03-29T01:32:27.706Z,8.64
2023-03-29T01:35:01.651Z,8.51
2023-03-29T01:37:37.533Z,8.66
2023-03-29T01:40:06.133Z,8.74
2023-03-29T01:42:41.740Z,8.77
2023-03-29T01:45:22.318Z,8.97
2023-03-29T01:47:52.640Z,8.94
2023-03-29T01:50:43.312Z,8.58
2023-03-29T01:53:14.693Z,8.61
2023-03-29T01:55:47.992Z,8.84
2023-03-29T01:58:16.858Z,9.06
2023-03-29T02:00:43.782Z,8.98
2023-03-29T02:03:10.789Z,9.08
2023-03-29T02:05:39.192Z,8.96
2023-03-29T02:08:09.108Z,8.69
2023-03-29T02:10:36.881Z,8.79
2023-03-29T02:13:04.758Z,9.01
2023-03-29T02:15:31.170Z,9.20
2023-03-29T02:17:57.754Z,9.14
2023-03-29T02:20:32.051Z,9.16
2023-03-29T02:23:18.073Z,9.15
2023-03-29T02:25:46.562Z,9.24
2023-03-29T02:28:13.456Z,9.23
2023-03-29T02:30:55.750Z,9.23
2023-03-29T02:33:32.835Z,9.26
2023-03-29T02:36:07.846Z,9.25
2023-03-29T02:38:35.092Z,9.17
2023-03-29T02:41:02.939Z,9.10
2023-03-29T02:43:31.049Z,9.11
2023-03-29T02:45:58.251Z,9.10
2023-03-29T02:48:27.843Z,8.92
2023-03-29T02:50:58.437Z,8.86
2023-03-29T02:53:32.414Z,9.06
2023-03-29T02:56:02.333Z,9.22
2023-03-29T02:58:29.512Z,9.31
2023-03-29T03:00:57.311Z,9.43
2023-03-29T03:03:23.792Z,9.34
2023-03-29T03:05:52.342Z,9.41
2023-03-29T03:08:18.763Z,9.26
2023-03-29T03:10:46.053Z,9.43
2023-03-29T03:13:12.594Z,9.66
2023-03-29T03:15:42.566Z,9.59
2023-03-29T03:18:10.505Z,9.59
2023-03-29T03:20:37.032Z,9.63
2023-03-29T03:23:03.630Z,9.61
2023-03-29T03:25:30.292Z,9.66
2023-03-29T03:27:57.190Z,9.65
2023-03-29T03:30:23.859Z,9.67
2023-03-29T03:32:50.248Z,9.77
2023-03-29T03:35:17.012Z,9.76
2023-03-29T03:37:43.464Z,9.77
2023-03-29T03:40:11.622Z,9.69
2023-03-29T03:42:39.211Z,9.52
2023-03-29T03:45:06.384Z,9.46
2023-03-29T03:47:33.362Z,9.40
2023-03-29T03:49:59.928Z,9.59
2023-03-29T03:52:26.922Z,9.71
2023-03-29T03:54:53.394Z,9.66
2023-03-29T03:57:19.821Z,9.56
2023-03-29T03:59:46.519Z,9.61
2023-03-29T04:02:12.986Z,9.58
2023-03-29T04:04:40.485Z,9.53
2023-03-29T04:07:07.030Z,9.64
2023-03-29T04:09:34.323Z,9.58
2023-03-29T04:12:01.592Z,9.58
2023-03-29T04:14:28.214Z,9.50
2023-03-29T04:16:55.095Z,9.41
2023-03-29T04:19:22.008Z,9.59
2023-03-29T04:21:49.490Z,9.64
2023-03-29T04:24:17.224Z,9.69
2023-03-29T04:26:45.050Z,9.71
2023-03-29T04:29:11.731Z,9.68
2023-03-29T04:31:38.194Z,9.76
2023-03-29T04:34:04.632Z,9.85
2023-03-29T04:36:31.135Z,9.95
2023-03-29T04:38:58.599Z,9.89
2023-03-29T04:41:24.985Z,9.80
2023-03-29T04:43:51.969Z,9.76
2023-03-29T04:46:18.451Z,9.87
2023-03-29T04:48:45.227Z,9.87
2023-03-29T04:51:11.682Z,9.82
2023-03-29T04:53:38.660Z,9.79
2023-03-29T04:56:06.205Z,9.68
2023-03-29T04:58:32.884Z,9.87
2023-03-29T05:00:59.973Z,9.76
2023-03-29T05:03:27.031Z,9.59
2023-03-29T05:05:53.624Z,9.54
2023-03-29T05:08:20.069Z,9.40
2023-03-29T05:10:47.557Z,9.44
2023-03-29T05:13:13.960Z,9.55
2023-03-29T05:15:41.729Z,9.68
2023-03-29T05:18:08.211Z,9.64
2023-03-29T05:20:34.653Z,9.52
2023-03-29T05:23:01.404Z,9.59
2023-03-29T05:25:28.169Z,9.72
2023-03-29T05:27:54.574Z,9.73
2023-03-29T05:30:21.074Z,9.78
2023-03-29T05:32:48.025Z,9.75
2023-03-29T05:35:16.487Z,9.86
2023-03-29T05:37:42.892Z,9.90
2023-03-29T05:40:09.924Z,9.75
2023-03-29T05:42:37.996Z,9.69
2023-03-29T05:45:05.058Z,9.63
2023-03-29T05:47:31.645Z,9.65
2023-03-29T05:49:58.112Z,9.51
2023-03-29T05:52:24.837Z,9.46
2023-03-29T05:54:51.539Z,9.40
2023-03-29T05:57:18.029Z,9.40
2023-03-29T05:59:45.184Z,9.45
2023-03-29T06:02:12.391Z,9.49
2023-03-29T06:04:39.961Z,9.34
2023-03-29T06:07:07.057Z,9.22
2023-03-29T06:09:33.612Z,9.34
2023-03-29T06:12:01.686Z,9.26
2023-03-29T06:14:28.945Z,9.25
2023-03-29T06:16:56.454Z,9.31
2023-03-29T06:19:23.050Z,9.27
2023-03-29T06:21:49.923Z,9.15
2023-03-29T06:24:16.428Z,9.12
2023-03-29T06:26:42.889Z,9.17
2023-03-29T06:29:10.241Z,9.32
2023-03-29T06:31:37.143Z,9.34
2023-03-29T06:34:04.665Z,9.24
2023-03-29T06:36:34.133Z,9.22
2023-03-29T06:39:00.909Z,9.19
2023-03-29T06:41:27.420Z,9.16
2023-03-29T06:43:55.041Z,9.33
2023-03-29T06:46:21.552Z,9.37
2023-03-29T06:48:48.269Z,9.31
2023-03-29T06:51:15.406Z,9.47
2023-03-29T06:53:41.845Z,9.59
2023-03-29T06:56:09.813Z,9.61
2023-03-29T06:58:37.072Z,9.59
2023-03-29T07:01:04.756Z,9.59
2023-03-29T07:03:33.566Z,9.69
2023-03-29T07:06:04.457Z,9.82
2023-03-29T07:08:31.743Z,10.00
2023-03-29T07:10:59.272Z,9.92
2023-03-29T07:13:26.304Z,9.95
2023-03-29T07:15:52.804Z,10.03
2023-03-29T07:18:19.793Z,10.27
2023-03-29T07:20:48.392Z,10.35
2023-03-29T07:23:15.324Z,10.39
2023-03-29T07:25:42.012Z,10.61
2023-03-29T07:28:09.113Z,10.69
2023-03-29T07:30:35.614Z,10.73
2023-03-29T07:33:02.212Z,10.86
2023-03-29T07:35:28.986Z,10.90
2023-03-29T07:37:55.961Z,10.86
2023-03-29T07:40:23.671Z,10.90
2023-03-29T07:42:56.475Z,10.87
2023-03-29T07:45:26.914Z,10.89
2023-03-29T07:47:57.031Z,11.07
2023-03-29T07:50:23.779Z,10.97
2023-03-29T07:52:50.233Z,11.08
2023-03-29T07:55:17.132Z,11.13
2023-03-29T07:57:44.941Z,11.10
2023-03-29T08:00:16.684Z,11.12
2023-03-29T08:02:45.224Z,11.26
2023-03-29T08:05:23.203Z,11.43
2023-03-29T08:07:56.096Z,11.45
2023-03-29T08:10:23.392Z,11.45
2023-03-29T08:12:50.467Z,11.37
2023-03-29T08:15:17.080Z,11.08
2023-03-29T08:17:43.864Z,10.89
2023-03-29T08:20:13.268Z,10.86
2023-03-29T08:22:40.684Z,10.76
2023-03-29T08:25:08.138Z,10.67
2023-03-29T08:27:35.154Z,10.69
2023-03-29T08:30:01.544Z,10.73
2023-03-29T08:32:27.985Z,10.80
2023-03-29T08:34:55.048Z,10.90
2023-03-29T08:37:21.885Z,11.06
2023-03-29T08:39:48.591Z,11.03
2023-03-29T08:42:37.565Z,11.16
2023-03-29T08:45:25.063Z,11.12
2023-03-29T08:48:04.080Z,11.06
2023-03-29T08:51:19.845Z,10.84
2023-03-29T08:53:52.401Z,11.08
2023-03-29T08:56:25.758Z,11.36
2023-03-29T08:58:54.833Z,11.60
2023-03-29T09:01:22.961Z,11.15
2023-03-29T09:04:09.263Z,10.83
2023-03-29T09:06:36.000Z,10.97
2023-03-29T09:09:03.391Z,11.37
2023-03-29T09:11:41.944Z,11.50
2023-03-29T09:14:19.299Z,11.60
2023-03-29T09:16:52.019Z,11.68
2023-03-29T09:19:40.660Z,11.63
2023-03-29T09:22:46.659Z,11.40
2023-03-29T09:25:29.482Z,11.17
2023-03-29T09:28:13.721Z,11.32
2023-03-29T09:30:57.018Z,11.53
2023-03-29T09:33:47.613Z,11.83
2023-03-29T09:36:18.448Z,11.84
2023-03-29T09:38:49.004Z,11.82
2023-03-29T09:41:26.588Z,11.88
2023-03-29T09:43:55.317Z,12.23
2023-03-29T09:46:30.242Z,12.31
2023-03-29T09:48:57.250Z,12.57
2023-03-29T09:51:27.989Z,12.66
2023-03-29T09:53:57.988Z,12.75
2023-03-29T09:56:24.433Z,12.88
2023-03-29T09:58:51.249Z,12.71
2023-03-29T10:01:19.017Z,12.73
2023-03-29T10:03:51.599Z,12.62
2023-03-29T10:06:19.853Z,12.06
2023-03-29T10:08:58.761Z,11.69
2023-03-29T10:11:38.422Z,11.16
2023-03-29T10:14:13.210Z,10.97
2023-03-29T10:16:41.856Z,11.01
2023-03-29T10:19:27.098Z,11.22
2023-03-29T10:21:55.105Z,11.53
2023-03-29T10:24:23.532Z,11.81
2023-03-29T10:27:06.857Z,12.01
2023-03-29T10:29:43.115Z,12.18
2023-03-29T10:32:26.162Z,12.38
2023-03-29T10:34:53.630Z,12.62
2023-03-29T10:37:21.265Z,12.65
2023-03-29T10:39:48.809Z,12.69
2023-03-29T10:42:18.118Z,12.45
2023-03-29T10:44:54.398Z,12.44
2023-03-29T10:47:21.460Z,12.36
2023-03-29T10:49:56.457Z,12.45
2023-03-29T10:52:23.512Z,12.48
2023-03-29T10:54:52.793Z,12.64
2023-03-29T10:57:40.800Z,12.93
2023-03-29T11:00:22.613Z,13.45
2023-03-29T11:03:07.510Z,13.92
2023-03-29T11:05:37.738Z,14.21
2023-03-29T11:08:42.790Z,15.04
2023-03-29T11:11:26.612Z,15.56
2023-03-29T11:14:28.333Z,16.03
2023-03-29T11:17:17.036Z,16.39
2023-03-29T11:20:04.478Z,16.62
2023-03-29T11:22:46.424Z,16.73
2023-03-29T11:25:33.961Z,17.00
2023-03-29T11:28:29.207Z,16.53
2023-03-29T11:31:33.368Z,16.15
2023-03-29T11:34:21.814Z,16.13
2023-03-29T11:37:26.646Z,16.33
2023-03-29T11:40:08.283Z,16.22
2023-03-29T11:42:39.629Z,15.91
2023-03-29T11:45:11.362Z,16.05
2023-03-29T11:47:41.252Z,16.30
2023-03-29T11:50:19.544Z,16.59
2023-03-29T11:52:56.251Z,16.87
2023-03-29T11:55:29.125Z,17.36
2023-03-29T11:58:06.098Z,18.46
2023-03-29T12:00:40.442Z,18.46
2023-03-29T12:03:13.289Z,18.60
2023-03-29T12:05:44.071Z,18.24
2023-03-29T12:08:18.385Z,18.95
2023-03-29T12:11:02.427Z,19.41
2023-03-29T12:13:33.481Z,20.38
2023-03-29T12:16:07.797Z,20.81
2023-03-29T12:18:42.624Z,21.75
2023-03-29T12:21:22.237Z,21.75
2023-03-29T12:23:50.024Z,22.16
2023-03-29T12:26:35.233Z,22.76
2023-03-29T12:29:08.305Z,23.30
2023-03-29T12:31:46.646Z,23.32
2023-03-29T12:34:36.259Z,23.61
2023-03-29T12:37:02.616Z,23.90
2023-03-29T12:39:31.017Z,23.63
2023-03-29T12:42:17.638Z,25.31
2023-03-29T12:45:06.503Z,26.10
2023-03-29T12:47:43.107Z,26.51
2023-03-29T12:50:26.031Z,26.30
2023-03-29T12:52:53.148Z,25.86
2023-03-29T12:55:48.091Z,26.62
2023-03-29T12:58:43.036Z,27.02
2023-03-29T13:01:23.377Z,26.23
2023-03-29T13:03:57.728Z,25.33
2023-03-29T13:06:56.186Z,24.40
2023-03-29T13:09:29.426Z,23.33
2023-03-29T13:12:16.108Z,22.49
2023-03-29T13:14:50.542Z,21.39
2023-03-29T13:17:27.240Z,21.18
2023-03-29T13:20:03.908Z,21.30
2023-03-29T13:22:51.205Z,20.83
2023-03-29T13:25:41.238Z,20.16
2023-03-29T13:28:30.116Z,19.70
2023-03-29T13:31:02.518Z,19.40
2023-03-29T13:34:07.611Z,19.03
2023-03-29T13:37:11.861Z,18.80
2023-03-29T13:39:49.431Z,18.75
2023-03-29T13:42:41.779Z,18.48
2023-03-29T13:45:15.086Z,18.37
2023-03-29T13:47:54.890Z,18.25
2023-03-29T13:50:51.462Z,18.00
2023-03-29T13:53:35.218Z,17.67
2023-03-29T13:56:02.085Z,17.71
2023-03-29T13:58:35.179Z,17.59
2023-03-29T14:01:15.159Z,17.72
2023-03-29T14:03:48.428Z,17.71
2023-03-29T14:06:21.873Z,17.79
2023-03-29T14:08:49.696Z,17.74
2023-03-29T14:11:23.143Z,17.69
2023-03-29T14:13:58.701Z,17.33
2023-03-29T14:16:31.605Z,17.40
2023-03-29T14:19:21.529Z,17.34
2023-03-29T14:21:50.594Z,17.28
2023-03-29T14:24:21.988Z,17.14
2023-03-29T14:26:48.962Z,17.27
2023-03-29T14:29:18.053Z,17.48
2023-03-29T14:31:45.069Z,17.30
2023-03-29T14:34:18.379Z,17.07
2023-03-29T14:36:48.646Z,17.05
2023-03-29T14:39:23.117Z,17.29
2023-03-29T14:41:52.721Z,17.37
2023-03-29T14:44:22.442Z,17.36
2023-03-29T14:46:49.045Z,17.42
2023-03-29T14:49:20.138Z,17.31
2023-03-29T14:51:47.579Z,17.59
2023-03-29T14:54:28.679Z,17.47
2023-03-29T14:56:55.854Z,17.52
2023-03-29T14:59:39.082Z,17.44
2023-03-29T15:02:22.940Z,17.25
2023-03-29T15:05:25.434Z,17.07
2023-03-29T15:07:55.904Z,17.19
2023-03-29T15:10:23.076Z,17.17
2023-03-29T15:12:51.226Z,17.00
2023-03-29T15:15:18.019Z,16.98
2023-03-29T15:17:52.288Z,16.77
2023-03-29T15:20:24.596Z,16.61
2023-03-29T15:35:54.401Z,17.28
2023-03-29T15:38:27.487Z,17.46
2023-03-29T15:41:00.913Z,17.46
2023-03-29T15:43:27.498Z,17.50
2023-03-29T15:45:54.062Z,17.45
2023-03-29T15:48:26.616Z,17.47
2023-03-29T15:50:54.528Z,17.40
2023-03-29T15:53:23.380Z,17.19
2023-03-29T15:55:54.771Z,17.06
2023-03-29T15:58:27.295Z,17.08
2023-03-29T16:01:02.599Z,17.05
2023-03-29T16:03:29.144Z,17.12
2023-03-29T16:05:56.893Z,17.16
2023-03-29T16:08:24.978Z,16.67
2023-03-29T16:10:51.981Z,16.70
2023-03-29T16:13:18.403Z,16.64
2023-03-29T16:15:45.847Z,16.54
2023-03-29T16:18:12.490Z,16.71
2023-03-29T16:20:40.050Z,16.69
2023-03-29T16:23:11.448Z,16.74
2023-03-29T16:25:39.864Z,16.85
2023-03-29T16:28:08.396Z,16.68
2023-03-29T16:30:35.272Z,16.61
2023-03-29T16:33:06.198Z,16.74
2023-03-29T16:35:35.301Z,16.78
2023-03-29T16:38:01.843Z,16.69
2023-03-29T16:40:28.297Z,16.54
2023-03-29T16:42:54.756Z,16.41
2023-03-29T16:45:21.389Z,16.30
2023-03-29T16:47:47.931Z,16.42
2023-03-29T16:50:18.065Z,16.25
2023-03-29T16:52:45.665Z,16.23
2023-03-29T16:55:13.162Z,16.31
2023-03-29T16:57:40.139Z,16.31
2023-03-29T17:00:11.234Z,16.29
2023-03-29T17:02:37.792Z,16.13
2023-03-29T17:05:04.954Z,16.11
2023-03-29T17:07:32.043Z,16.12
2023-03-29T17:09:58.461Z,16.17
2023-03-29T17:12:24.908Z,16.12
2023-03-29T17:14:51.384Z,16.10
2023-03-29T17:17:17.836Z,16.06
2023-03-29T17:19:44.417Z,16.07
2023-03-29T17:22:10.892Z,16.09
2023-03-29T17:24:37.332Z,16.08
2023-03-29T17:27:03.847Z,15.99
2023-03-29T17:29:30.453Z,15.89
2023-03-29T17:31:56.937Z,15.75
2023-03-29T17:34:23.421Z,15.73
2023-03-29T17:36:53.212Z,15.85
2023-03-29T17:39:19.637Z,15.79
2023-03-29T17:41:47.141Z,15.82
2023-03-29T17:44:13.915Z,15.73
2023-03-29T17:46:40.635Z,15.68
2023-03-29T17:49:07.182Z,15.37
2023-03-29T17:51:33.664Z,14.99
2023-03-29T17:54:00.101Z,14.40
2023-03-29T17:56:26.636Z,14.11
2023-03-29T17:58:53.511Z,13.81
2023-03-29T18:01:20.380Z,13.70
2023-03-29T18:03:48.104Z,13.71
2023-03-29T18:06:18.039Z,13.80
2023-03-29T18:08:44.973Z,13.85
2023-03-29T18:11:18.806Z,13.86
2023-03-29T18:13:45.310Z,13.91
2023-03-29T18:16:11.893Z,13.89
2023-03-29T18:18:38.667Z,13.79
2023-03-29T18:21:06.936Z,13.65
2023-03-29T18:23:33.836Z,13.59
2023-03-29T18:26:03.993Z,13.61
2023-03-29T18:28:32.118Z,13.65
2023-03-29T18:30:58.702Z,13.83
2023-03-29T18:33:25.648Z,13.91
2023-03-29T18:35:52.397Z,13.98
2023-03-29T18:38:20.940Z,13.77
2023-03-29T18:40:48.102Z,13.87
2023-03-29T18:43:14.639Z,14.12
2023-03-29T18:45:41.420Z,14.14
2023-03-29T18:48:08.384Z,14.13
2023-03-29T18:50:35.299Z,14.28
2023-03-29T18:53:02.146Z,14.46
2023-03-29T18:55:29.112Z,14.22
2023-03-29T18:57:55.581Z,13.93
2023-03-29T19:00:22.346Z,13.72
2023-03-29T19:02:49.307Z,13.59
2023-03-29T19:05:15.973Z,13.47
2023-03-29T19:07:42.341Z,13.53
2023-03-29T19:10:08.933Z,13.44
2023-03-29T19:12:35.733Z,13.35
2023-03-29T19:15:02.223Z,13.27
2023-03-29T19:17:28.792Z,13.34
2023-03-29T19:19:56.711Z,13.30
2023-03-29T19:22:23.386Z,13.15
2023-03-29T19:24:49.975Z,13.14
2023-03-29T19:27:16.548Z,13.10
2023-03-29T19:29:42.977Z,13.14
2023-03-29T19:32:09.479Z,13.27
2023-03-29T19:34:36.174Z,13.54
2023-03-29T19:37:02.568Z,13.51
2023-03-29T19:39:29.791Z,13.63
2023-03-29T19:41:56.652Z,13.63
2023-03-29T19:44:27.996Z,13.85
2023-03-29T19:46:54.649Z,13.87
2023-03-29T19:49:21.072Z,14.03
2023-03-29T19:51:48.017Z,14.00
2023-03-29T19:54:14.697Z,13.98
2023-03-29T19:56:42.664Z,14.03
2023-03-29T19:59:11.210Z,14.16
2023-03-29T20:01:39.513Z,14.17
2023-03-29T20:04:06.320Z,14.18
2023-03-29T20:06:32.902Z,14.14
2023-03-29T20:08:59.415Z,14.10
2023-03-29T20:11:26.041Z,13.81
2023-03-29T20:13:52.831Z,13.84
2023-03-29T20:16:19.873Z,14.07
2023-03-29T20:18:46.486Z,14.16
2023-03-29T20:21:16.261Z,13.97
2023-03-29T20:23:43.104Z,14.14
2023-03-29T20:26:10.455Z,14.24
2023-03-29T20:28:37.631Z,14.29
2023-03-29T20:31:06.824Z,14.24
2023-03-29T20:33:33.579Z,14.24
2023-03-29T20:36:00.067Z,14.30
2023-03-29T20:38:26.983Z,14.32
2023-03-29T20:40:55.238Z,14.34
2023-03-29T20:43:21.810Z,14.37
2023-03-29T20:45:53.549Z,14.45
2023-03-29T20:48:23.749Z,14.46
2023-03-29T20:50:50.713Z,14.40
2023-03-29T20:53:18.395Z,14.42
2023-03-29T20:55:45.022Z,14.48
2023-03-29T20:58:12.208Z,14.54
2023-03-29T21:00:40.365Z,14.55
2023-03-29T21:03:08.336Z,14.50
2023-03-29T21:05:35.561Z,14.46
2023-03-29T21:08:02.904Z,14.46
2023-03-29T21:10:29.645Z,14.28
2023-03-29T21:13:00.234Z,13.89
2023-03-29T21:15:29.373Z,13.72
2023-03-29T21:17:56.314Z,13.54
2023-03-29T21:20:23.140Z,13.31
2023-03-29T21:22:49.706Z,13.24
2023-03-29T21:25:16.195Z,13.20
2023-03-29T21:27:42.940Z,13.10
2023-03-29T21:30:09.918Z,13.13
2023-03-29T21:32:36.634Z,13.24
2023-03-29T21:35:03.467Z,13.38
2023-03-29T21:37:29.879Z,13.50
2023-03-29T21:39:56.469Z,13.50
2023-03-29T21:42:23.428Z,13.49
2023-03-29T21:44:49.867Z,13.56
2023-03-29T21:47:16.344Z,13.49
2023-03-29T21:49:42.810Z,13.59
2023-03-29T21:52:09.201Z,13.74
2023-03-29T21:54:36.048Z,13.77
2023-03-29T21:57:02.542Z,13.56
2023-03-29T21:59:28.952Z,13.47
2023-03-29T22:01:55.786Z,13.57
2023-03-29T22:04:35.377Z,13.56
2023-03-29T22:07:02.851Z,13.57
2023-03-29T22:09:29.593Z,13.61
2023-03-29T22:11:56.830Z,13.87
2023-03-29T22:14:23.379Z,13.98
2023-03-29T22:16:49.870Z,13.87
2023-03-29T22:19:16.382Z,13.90
2023-03-29T22:21:44.006Z,13.80
2023-03-29T22:24:10.484Z,13.79
2023-03-29T22:26:37.032Z,13.78
2023-03-29T22:29:03.552Z,13.86
2023-03-29T22:31:32.152Z,13.92
2023-03-29T22:33:58.637Z,13.94
2023-03-29T22:36:28.511Z,14.04
2023-03-29T22:38:55.580Z,14.17
2023-03-29T22:41:23.917Z,14.03
2023-03-29T22:43:55.944Z,14.08
2023-03-29T22:46:23.110Z,13.91
2023-03-29T22:48:49.777Z,13.89
2023-03-29T22:51:16.689Z,13.88
2023-03-29T22:53:43.148Z,13.85
2023-03-29T22:56:09.688Z,13.78
2023-03-29T22:58:37.214Z,13.80
2023-03-29T23:01:05.582Z,13.86
2023-03-29T23:03:32.337Z,13.92
2023-03-29T23:06:02.320Z,13.91
2023-03-29T23:08:30.998Z,13.68
2023-03-29T23:10:57.453Z,13.74
2023-03-29T23:13:25.948Z,13.71
2023-03-29T23:15:54.700Z,13.82
2023-03-29T23:18:22.206Z,14.12
2023-03-29T23:20:49.160Z,14.12
2023-03-29T23:23:16.821Z,14.06
2023-03-29T23:25:45.689Z,14.06
2023-03-29T23:28:12.946Z,14.03
2023-03-29T23:30:39.992Z,14.12
2023-03-29T23:33:07.405Z,14.41
2023-03-29T23:35:33.921Z,14.57
2023-03-29T23:38:00.808Z,14.71
2023-03-29T23:40:27.774Z,14.58
2023-03-29T23:42:59.401Z,14.70
2023-03-29T23:45:29.661Z,14.42
2023-03-29T23:47:57.059Z,14.22
2023-03-29T23:50:23.723Z,14.44
2023-03-29T23:52:51.548Z,14.28
2023-03-29T23:55:18.489Z,14.01
2023-03-29T23:57:44.974Z,13.91
